Time,TemperatureF,DewpointF,PressureIn,WindDirection,WindDirectionDegrees,WindSpeedMPH,WindSpeedGustMPH,Humidity,HourlyPrecipIn,Conditions,Clouds,dailyrainin,SolarRadiationWatts/m^2,SoftwareType,DateUTC
2013-11-20 00:02:00,41.0,24.0,-100.00,North,353,8.0,19.0,50,0.00,,,0.00,0.000000,,2013-11-20 05:02:00,
2013-11-20 00:12:00,41.0,24.0,-100.00,North,353,8.0,19.0,50,0.00,,,0.00,0.000000,,2013-11-20 05:12:00,
2013-11-20 00:22:00,41.0,24.0,-100.00,North,353,8.0,19.0,50,0.00,,,0.00,0.000000,,2013-11-20 05:22:00,
2013-11-20 00:53:00,41.0,25.0,-100.00,North,351,6.0,16.0,52,0.00,,,0.00,0.000000,,2013-11-20 05:53:00,
2013-11-20 01:02:00,41.0,25.0,-100.00,North,351,6.0,16.0,52,0.00,,,0.00,0.000000,,2013-11-20 06:02:00,
2013-11-20 01:12:00,41.0,25.0,-100.00,North,351,6.0,16.0,52,0.00,,,0.00,0.000000,,2013-11-20 06:12:00,
2013-11-20 01:21:00,41.0,25.0,-100.00,North,351,6.0,16.0,52,0.00,,,0.00,0.000000,,2013-11-20 06:21:00,
2013-11-20 01:52:00,40.0,25.0,-100.00,NE,51,4.0,14.0,54,0.00,,,0.00,0.000000,,2013-11-20 06:52:00,
2013-11-20 02:01:00,40.0,25.0,-100.00,NE,51,4.0,14.0,54,0.00,,,0.00,0.000000,,2013-11-20 07:01:00,
2013-11-20 02:11:00,40.0,25.0,-100.00,NE,51,4.0,14.0,54,0.00,,,0.00,0.000000,,2013-11-20 07:11:00,
2013-11-20 02:22:00,40.0,25.0,-100.00,NE,51,4.0,14.0,54,0.00,,,0.00,0.000000,,2013-11-20 07:22:00,
2013-11-20 02:52:00,39.0,25.0,-100.00,East,93,4.0,10.0,56,0.00,,,0.00,0.000000,,2013-11-20 07:52:00,
2013-11-20 03:02:00,39.0,25.0,-100.00,East,93,4.0,10.0,56,0.00,,,0.00,0.000000,,2013-11-20 08:02:00,
2013-11-20 03:12:00,39.0,25.0,-100.00,East,93,4.0,10.0,56,0.00,,,0.00,0.000000,,2013-11-20 08:12:00,
2013-11-20 03:22:00,39.0,25.0,-100.00,East,93,4.0,10.0,56,0.00,,,0.00,0.000000,,2013-11-20 08:22:00,
2013-11-20 03:52:00,38.0,25.0,-100.00,ESE,106,4.0,14.0,58,0.00,,,0.00,0.000000,,2013-11-20 08:52:00,
2013-11-20 04:02:00,38.0,25.0,-100.00,ESE,106,4.0,14.0,58,0.00,,,0.00,0.000000,,2013-11-20 09:02:00,
2013-11-20 04:13:00,38.0,25.0,-100.00,ESE,106,4.0,14.0,58,0.00,,,0.00,0.000000,,2013-11-20 09:13:00,
2013-11-20 04:22:00,38.0,25.0,-100.00,ESE,106,4.0,14.0,58,0.00,,,0.00,0.000000,,2013-11-20 09:22:00,
2013-11-20 04:54:00,38.0,25.0,-100.00,ENE,67,4.0,12.0,59,0.00,,,0.00,0.000000,,2013-11-20 09:54:00,
2013-11-20 05:03:00,38.0,25.0,-100.00,ENE,67,4.0,12.0,59,0.00,,,0.00,0.000000,,2013-11-20 10:03:00,
2013-11-20 05:13:00,38.0,25.0,-100.00,ENE,67,4.0,12.0,59,0.00,,,0.00,0.000000,,2013-11-20 10:13:00,
2013-11-20 05:23:00,38.0,25.0,-100.00,ENE,67,4.0,12.0,59,0.00,,,0.00,0.000000,,2013-11-20 10:23:00,
2013-11-20 05:53:00,37.0,25.0,-100.00,East,86,5.0,12.0,61,0.00,,,0.00,0.000000,,2013-11-20 10:53:00,
2013-11-20 06:03:00,37.0,25.0,-100.00,East,86,5.0,12.0,61,0.00,,,0.00,0.000000,,2013-11-20 11:03:00,
2013-11-20 06:12:00,37.0,25.0,-100.00,East,86,5.0,12.0,61,0.00,,,0.00,0.000000,,2013-11-20 11:12:00,
2013-11-20 06:22:00,37.0,25.0,-100.00,East,86,5.0,12.0,61,0.00,,,0.00,0.000000,,2013-11-20 11:22:00,
2013-11-20 06:52:00,37.0,26.0,-100.00,ENE,77,6.0,12.0,63,0.00,,,0.00,0.000000,,2013-11-20 11:52:00,
2013-11-20 07:02:00,37.0,26.0,-100.00,ENE,77,6.0,12.0,63,0.00,,,0.00,0.000000,,2013-11-20 12:02:00,
2013-11-20 07:11:00,37.0,26.0,-100.00,ENE,77,6.0,12.0,63,0.00,,,0.00,0.000000,,2013-11-20 12:11:00,
2013-11-20 07:22:00,37.0,26.0,-100.00,ENE,77,6.0,12.0,63,0.00,,,0.00,0.000000,,2013-11-20 12:22:00,
2013-11-20 07:52:00,38.0,26.0,-100.00,ENE,78,5.0,13.0,62,0.00,,,0.00,6.000000,,2013-11-20 12:52:00,
2013-11-20 08:02:00,38.0,26.0,-100.00,ENE,78,5.0,13.0,62,0.00,,,0.00,6.000000,,2013-11-20 13:02:00,
2013-11-20 08:12:00,38.0,26.0,-100.00,ENE,78,5.0,13.0,62,0.00,,,0.00,6.000000,,2013-11-20 13:12:00,
2013-11-20 08:22:00,38.0,26.0,-100.00,ENE,78,5.0,13.0,62,0.00,,,0.00,6.000000,,2013-11-20 13:22:00,
2013-11-20 08:52:00,39.0,27.0,-100.00,ENE,74,6.0,13.0,62,0.00,,,0.00,54.000000,,2013-11-20 13:52:00,
2013-11-20 09:02:00,39.0,27.0,-100.00,ENE,74,6.0,13.0,62,0.00,,,0.00,54.000000,,2013-11-20 14:02:00,
2013-11-20 09:12:00,39.0,27.0,-100.00,ENE,74,6.0,13.0,62,0.00,,,0.00,54.000000,,2013-11-20 14:12:00,
2013-11-20 09:22:00,39.0,27.0,-100.00,ENE,74,6.0,13.0,62,0.00,,,0.00,54.000000,,2013-11-20 14:22:00,
2013-11-20 09:52:00,40.0,28.0,-100.00,ENE,70,7.0,15.0,62,0.00,,,0.00,146.000000,,2013-11-20 14:52:00,
2013-11-20 10:02:00,40.0,28.0,-100.00,ENE,70,7.0,15.0,62,0.00,,,0.00,146.000000,,2013-11-20 15:02:00,
2013-11-20 10:11:00,40.0,28.0,-100.00,ENE,70,7.0,15.0,62,0.00,,,0.00,146.000000,,2013-11-20 15:11:00,
2013-11-20 10:22:00,40.0,28.0,-100.00,ENE,70,7.0,15.0,62,0.00,,,0.00,146.000000,,2013-11-20 15:22:00,
2013-11-20 10:54:00,43.0,30.0,-100.00,ENE,71,5.0,12.0,60,0.00,,,0.00,274.000000,,2013-11-20 15:54:00,
2013-11-20 11:03:00,43.0,30.0,-100.00,ENE,71,5.0,12.0,60,0.00,,,0.00,274.000000,,2013-11-20 16:03:00,
2013-11-20 11:12:00,43.0,30.0,-100.00,ENE,71,5.0,12.0,60,0.00,,,0.00,274.000000,,2013-11-20 16:12:00,
2013-11-20 11:23:00,43.0,30.0,-100.00,ENE,71,5.0,12.0,60,0.00,,,0.00,274.000000,,2013-11-20 16:23:00,
2013-11-20 11:52:00,44.0,30.0,-100.00,ENE,71,5.0,10.0,58,0.00,,,0.00,398.000000,,2013-11-20 16:52:00,
2013-11-20 12:02:00,44.0,30.0,-100.00,ENE,71,5.0,10.0,58,0.00,,,0.00,398.000000,,2013-11-20 17:02:00,
2013-11-20 12:12:00,44.0,30.0,-100.00,ENE,71,5.0,10.0,58,0.00,,,0.00,398.000000,,2013-11-20 17:12:00,
2013-11-20 12:22:00,44.0,30.0,-100.00,ENE,71,5.0,10.0,58,0.00,,,0.00,398.000000,,2013-11-20 17:22:00,
2013-11-20 12:52:00,45.0,30.0,-100.00,NE,41,4.0,12.0,55,0.00,,,0.00,533.000000,,2013-11-20 17:52:00,
2013-11-20 13:02:00,45.0,30.0,-100.00,NE,41,4.0,12.0,55,0.00,,,0.00,533.000000,,2013-11-20 18:02:00,
2013-11-20 13:12:00,45.0,30.0,-100.00,NE,41,4.0,12.0,55,0.00,,,0.00,533.000000,,2013-11-20 18:12:00,
2013-11-20 13:22:00,45.0,30.0,-100.00,NE,41,4.0,12.0,55,0.00,,,0.00,533.000000,,2013-11-20 18:22:00,
2013-11-20 13:52:00,45.0,30.0,-100.00,NNE,15,4.0,9.0,56,0.00,,,0.00,502.000000,,2013-11-20 18:52:00,
2013-11-20 14:02:00,45.0,30.0,-100.00,NNE,15,4.0,9.0,56,0.00,,,0.00,502.000000,,2013-11-20 19:02:00,
2013-11-20 14:12:00,45.0,30.0,-100.00,NNE,15,4.0,9.0,56,0.00,,,0.00,502.000000,,2013-11-20 19:12:00,
2013-11-20 14:22:00,45.0,30.0,-100.00,NNE,15,4.0,9.0,56,0.00,,,0.00,502.000000,,2013-11-20 19:22:00,
2013-11-20 14:52:00,45.0,31.0,-100.00,ENE,75,10.0,14.0,58,0.00,,,0.00,289.000000,,2013-11-20 19:52:00,
2013-11-20 15:01:00,45.0,31.0,-100.00,ENE,75,10.0,14.0,58,0.00,,,0.00,289.000000,,2013-11-20 20:01:00,
2013-11-20 15:11:00,45.0,31.0,-100.00,ENE,75,10.0,14.0,58,0.00,,,0.00,289.000000,,2013-11-20 20:11:00,
2013-11-20 15:22:00,45.0,31.0,-100.00,ENE,75,10.0,14.0,58,0.00,,,0.00,289.000000,,2013-11-20 20:22:00,
2013-11-20 15:52:00,44.0,33.0,-100.00,East,88,16.0,19.0,64,0.00,,,0.00,290.000000,,2013-11-20 20:52:00,
2013-11-20 16:02:00,44.0,33.0,-100.00,East,88,16.0,19.0,64,0.00,,,0.00,290.000000,,2013-11-20 21:02:00,
2013-11-20 16:11:00,44.0,33.0,-100.00,East,88,16.0,19.0,64,0.00,,,0.00,290.000000,,2013-11-20 21:11:00,
2013-11-20 16:22:00,44.0,33.0,-100.00,East,88,16.0,19.0,64,0.00,,,0.00,290.000000,,2013-11-20 21:22:00,
2013-11-20 16:53:00,42.0,32.0,-100.00,East,81,15.0,20.0,68,0.00,,,0.00,77.000000,,2013-11-20 21:53:00,
2013-11-20 17:03:00,42.0,32.0,-100.00,East,81,15.0,20.0,68,0.00,,,0.00,77.000000,,2013-11-20 22:03:00,
2013-11-20 17:13:00,42.0,32.0,-100.00,East,81,15.0,20.0,68,0.00,,,0.00,77.000000,,2013-11-20 22:13:00,
2013-11-20 17:23:00,42.0,32.0,-100.00,East,81,15.0,20.0,68,0.00,,,0.00,77.000000,,2013-11-20 22:23:00,
2013-11-20 17:53:00,42.0,32.0,-100.00,ENE,69,10.0,17.0,68,0.00,,,0.00,3.000000,,2013-11-20 22:53:00,
2013-11-20 18:02:00,42.0,32.0,-100.00,ENE,69,10.0,17.0,68,0.00,,,0.00,3.000000,,2013-11-20 23:02:00,
2013-11-20 18:12:00,42.0,32.0,-100.00,ENE,69,10.0,17.0,68,0.00,,,0.00,3.000000,,2013-11-20 23:12:00,
2013-11-20 18:22:00,42.0,32.0,-100.00,ENE,69,10.0,17.0,68,0.00,,,0.00,3.000000,,2013-11-20 23:22:00,
2013-11-20 18:53:00,42.0,33.0,-100.00,ENE,67,9.0,17.0,69,0.00,,,0.00,0.000000,,2013-11-20 23:53:00,
2013-11-20 19:02:00,42.0,33.0,-100.00,ENE,67,9.0,17.0,69,0.00,,,0.00,0.000000,,2013-11-21 00:02:00,
2013-11-20 19:11:00,42.0,33.0,-100.00,ENE,67,9.0,17.0,69,0.00,,,0.00,0.000000,,2013-11-21 00:11:00,
2013-11-20 19:22:00,42.0,33.0,-100.00,ENE,67,9.0,17.0,69,0.00,,,0.00,0.000000,,2013-11-21 00:22:00,
2013-11-20 19:52:00,42.0,33.0,-100.00,ENE,68,0.0,14.0,71,0.00,,,0.00,0.000000,,2013-11-21 00:52:00,
2013-11-20 20:02:00,42.0,33.0,-100.00,ENE,68,0.0,14.0,71,0.00,,,0.00,0.000000,,2013-11-21 01:02:00,
2013-11-20 20:11:00,42.0,33.0,-100.00,ENE,68,0.0,14.0,71,0.00,,,0.00,0.000000,,2013-11-21 01:11:00,
2013-11-20 20:22:00,42.0,33.0,-100.00,ENE,68,0.0,14.0,71,0.00,,,0.00,0.000000,,2013-11-21 01:22:00,
2013-11-20 20:52:00,42.0,34.0,-100.00,ENE,65,0.0,0.0,72,0.00,,,0.00,0.000000,,2013-11-21 01:52:00,
2013-11-20 21:01:00,42.0,34.0,-100.00,ENE,65,0.0,0.0,72,0.00,,,0.00,0.000000,,2013-11-21 02:01:00,
2013-11-20 21:11:00,42.0,34.0,-100.00,ENE,65,0.0,0.0,72,0.00,,,0.00,0.000000,,2013-11-21 02:11:00,
2013-11-20 21:22:00,42.0,34.0,-100.00,ENE,65,0.0,0.0,72,0.00,,,0.00,0.000000,,2013-11-21 02:22:00,
2013-11-20 22:11:00,43.0,35.0,-100.00,ENE,68,0.0,0.0,73,0.00,,,0.00,0.000000,,2013-11-21 03:11:00,
2013-11-20 22:22:00,43.0,35.0,-100.00,ENE,68,0.0,0.0,73,0.00,,,0.00,0.000000,,2013-11-21 03:22:00,
2013-11-20 22:54:00,43.0,35.0,-100.00,ENE,67,0.0,0.0,73,0.00,,,0.00,0.000000,,2013-11-21 03:54:00,
2013-11-20 23:04:00,43.0,35.0,-100.00,ENE,67,0.0,0.0,73,0.00,,,0.00,0.000000,,2013-11-21 04:04:00,
2013-11-20 23:13:00,43.0,35.0,-100.00,ENE,67,0.0,0.0,73,0.00,,,0.00,0.000000,,2013-11-21 04:13:00,
2013-11-20 23:23:00,43.0,35.0,-100.00,ENE,67,0.0,0.0,73,0.00,,,0.00,0.000000,,2013-11-21 04:23:00,
2013-11-20 23:53:00,44.0,36.0,-100.00,ENE,75,0.0,0.0,72,0.00,,,0.00,0.000000,,2013-11-21 04:53:00,